sensor_id;sensor_type;location;lat;lon;timestamp;P1;durP1;ratioP1;P2;durP2;ratioP2
68353;SDS011;55274;43.060;25.618;2023-09-30T00:01:17;16.63;;;7.70;;
68353;SDS011;55274;43.060;25.618;2023-09-30T00:03:44;17.92;;;7.15;;
68353;SDS011;55274;43.060;25.618;2023-09-30T00:06:10;13.90;;;7.35;;
68353;SDS011;55274;43.060;25.618;2023-09-30T00:08:36;18.65;;;7.18;;
68353;SDS011;55274;43.060;25.618;2023-09-30T00:11:05;14.05;;;6.75;;
68353;SDS011;55274;43.060;25.618;2023-09-30T00:13:31;16.10;;;7.18;;
68353;SDS011;55274;43.060;25.618;2023-09-30T00:15:57;12.85;;;7.07;;
68353;SDS011;55274;43.060;25.618;2023-09-30T00:18:23;13.88;;;6.90;;
68353;SDS011;55274;43.060;25.618;2023-09-30T00:20:49;14.05;;;7.60;;
68353;SDS011;55274;43.060;25.618;2023-09-30T00:23:14;13.38;;;7.13;;
68353;SDS011;55274;43.060;25.618;2023-09-30T00:25:40;13.05;;;7.40;;
68353;SDS011;55274;43.060;25.618;2023-09-30T00:28:07;12.25;;;6.95;;
68353;SDS011;55274;43.060;25.618;2023-09-30T00:30:33;14.13;;;6.88;;
68353;SDS011;55274;43.060;25.618;2023-09-30T00:32:59;15.35;;;8.43;;
68353;SDS011;55274;43.060;25.618;2023-09-30T00:35:25;14.88;;;7.07;;
68353;SDS011;55274;43.060;25.618;2023-09-30T00:37:51;15.90;;;7.63;;
68353;SDS011;55274;43.060;25.618;2023-09-30T00:40:17;15.13;;;7.40;;
68353;SDS011;55274;43.060;25.618;2023-09-30T00:42:42;18.25;;;7.90;;
68353;SDS011;55274;43.060;25.618;2023-09-30T00:45:09;11.98;;;7.10;;
68353;SDS011;55274;43.060;25.618;2023-09-30T00:47:35;12.95;;;7.38;;
68353;SDS011;55274;43.060;25.618;2023-09-30T00:50:02;12.88;;;7.47;;
68353;SDS011;55274;43.060;25.618;2023-09-30T00:52:30;15.05;;;6.82;;
68353;SDS011;55274;43.060;25.618;2023-09-30T00:54:58;13.98;;;7.50;;
68353;SDS011;55274;43.060;25.618;2023-09-30T00:57:24;16.98;;;7.35;;
68353;SDS011;55274;43.060;25.618;2023-09-30T00:59:51;16.15;;;7.25;;
68353;SDS011;55274;43.060;25.618;2023-09-30T01:02:17;12.23;;;6.72;;
68353;SDS011;55274;43.060;25.618;2023-09-30T01:04:44;13.35;;;7.28;;
68353;SDS011;55274;43.060;25.618;2023-09-30T01:07:10;15.55;;;7.20;;
68353;SDS011;55274;43.060;25.618;2023-09-30T01:09:36;13.85;;;7.50;;
68353;SDS011;55274;43.060;25.618;2023-09-30T01:12:03;15.35;;;7.30;;
68353;SDS011;55274;43.060;25.618;2023-09-30T01:14:30;15.85;;;7.25;;
68353;SDS011;55274;43.060;25.618;2023-09-30T01:16:57;16.27;;;7.90;;
68353;SDS011;55274;43.060;25.618;2023-09-30T01:19:23;14.38;;;7.57;;
68353;SDS011;55274;43.060;25.618;2023-09-30T01:21:56;13.50;;;8.05;;
68353;SDS011;55274;43.060;25.618;2023-09-30T01:24:27;13.48;;;6.95;;
68353;SDS011;55274;43.060;25.618;2023-09-30T01:26:54;15.43;;;7.38;;
68353;SDS011;55274;43.060;25.618;2023-09-30T01:29:21;14.57;;;8.85;;
68353;SDS011;55274;43.060;25.618;2023-09-30T01:31:47;15.57;;;7.90;;
68353;SDS011;55274;43.060;25.618;2023-09-30T01:34:15;13.68;;;7.80;;
68353;SDS011;55274;43.060;25.618;2023-09-30T01:36:41;15.82;;;8.23;;
68353;SDS011;55274;43.060;25.618;2023-09-30T01:39:08;15.77;;;7.95;;
68353;SDS011;55274;43.060;25.618;2023-09-30T01:41:36;15.55;;;8.57;;
68353;SDS011;55274;43.060;25.618;2023-09-30T01:44:02;16.35;;;9.02;;
68353;SDS011;55274;43.060;25.618;2023-09-30T01:46:28;18.67;;;9.13;;
68353;SDS011;55274;43.060;25.618;2023-09-30T01:48:54;19.20;;;10.30;;
68353;SDS011;55274;43.060;25.618;2023-09-30T01:51:20;18.58;;;9.30;;
68353;SDS011;55274;43.060;25.618;2023-09-30T01:53:47;18.23;;;9.50;;
68353;SDS011;55274;43.060;25.618;2023-09-30T01:56:13;16.38;;;8.73;;
68353;SDS011;55274;43.060;25.618;2023-09-30T01:58:39;22.77;;;9.57;;
68353;SDS011;55274;43.060;25.618;2023-09-30T02:01:04;22.23;;;8.98;;
68353;SDS011;55274;43.060;25.618;2023-09-30T02:03:30;21.67;;;9.00;;
68353;SDS011;55274;43.060;25.618;2023-09-30T02:05:57;17.25;;;9.35;;
68353;SDS011;55274;43.060;25.618;2023-09-30T02:08:23;17.23;;;9.18;;
68353;SDS011;55274;43.060;25.618;2023-09-30T02:10:49;21.50;;;9.63;;
68353;SDS011;55274;43.060;25.618;2023-09-30T02:13:19;21.52;;;9.75;;
68353;SDS011;55274;43.060;25.618;2023-09-30T02:15:45;14.30;;;8.18;;
68353;SDS011;55274;43.060;25.618;2023-09-30T02:18:11;16.92;;;9.60;;
68353;SDS011;55274;43.060;25.618;2023-09-30T02:20:37;15.88;;;9.98;;
68353;SDS011;55274;43.060;25.618;2023-09-30T02:23:09;19.35;;;9.68;;
68353;SDS011;55274;43.060;25.618;2023-09-30T02:25:38;18.65;;;9.30;;
68353;SDS011;55274;43.060;25.618;2023-09-30T02:28:05;17.52;;;10.02;;
68353;SDS011;55274;43.060;25.618;2023-09-30T02:30:31;24.55;;;10.60;;
68353;SDS011;55274;43.060;25.618;2023-09-30T02:32:57;15.40;;;8.60;;
68353;SDS011;55274;43.060;25.618;2023-09-30T02:35:24;19.55;;;9.25;;
68353;SDS011;55274;43.060;25.618;2023-09-30T02:37:51;19.15;;;9.50;;
68353;SDS011;55274;43.060;25.618;2023-09-30T02:40:17;18.08;;;8.95;;
68353;SDS011;55274;43.060;25.618;2023-09-30T02:42:43;22.65;;;10.50;;
68353;SDS011;55274;43.060;25.618;2023-09-30T02:45:10;24.20;;;10.13;;
68353;SDS011;55274;43.060;25.618;2023-09-30T02:47:37;18.98;;;10.13;;
68353;SDS011;55274;43.060;25.618;2023-09-30T02:50:07;20.50;;;11.10;;
68353;SDS011;55274;43.060;25.618;2023-09-30T02:52:36;18.90;;;9.93;;
68353;SDS011;55274;43.060;25.618;2023-09-30T02:55:04;19.25;;;9.63;;
68353;SDS011;55274;43.060;25.618;2023-09-30T02:57:30;23.27;;;10.10;;
68353;SDS011;55274;43.060;25.618;2023-09-30T02:59:56;17.90;;;10.07;;
68353;SDS011;55274;43.060;25.618;2023-09-30T03:02:24;21.98;;;9.50;;
68353;SDS011;55274;43.060;25.618;2023-09-30T03:04:50;24.10;;;10.75;;
68353;SDS011;55274;43.060;25.618;2023-09-30T03:07:17;27.20;;;10.98;;
68353;SDS011;55274;43.060;25.618;2023-09-30T03:09:44;25.00;;;10.63;;
68353;SDS011;55274;43.060;25.618;2023-09-30T03:12:12;22.65;;;10.18;;
68353;SDS011;55274;43.060;25.618;2023-09-30T03:14:39;23.05;;;10.30;;
68353;SDS011;55274;43.060;25.618;2023-09-30T03:17:05;22.58;;;12.13;;
68353;SDS011;55274;43.060;25.618;2023-09-30T03:19:36;27.95;;;11.68;;
68353;SDS011;55274;43.060;25.618;2023-09-30T03:22:02;26.50;;;11.55;;
68353;SDS011;55274;43.060;25.618;2023-09-30T03:24:30;19.38;;;10.45;;
68353;SDS011;55274;43.060;25.618;2023-09-30T03:26:56;19.38;;;9.52;;
68353;SDS011;55274;43.060;25.618;2023-09-30T03:29:23;21.10;;;10.43;;
68353;SDS011;55274;43.060;25.618;2023-09-30T03:31:48;23.35;;;10.85;;
68353;SDS011;55274;43.060;25.618;2023-09-30T03:34:14;18.23;;;9.60;;
68353;SDS011;55274;43.060;25.618;2023-09-30T03:36:41;22.05;;;9.80;;
68353;SDS011;55274;43.060;25.618;2023-09-30T03:39:08;22.38;;;9.00;;
68353;SDS011;55274;43.060;25.618;2023-09-30T03:41:34;19.13;;;8.10;;
68353;SDS011;55274;43.060;25.618;2023-09-30T03:44:03;17.40;;;8.32;;
68353;SDS011;55274;43.060;25.618;2023-09-30T03:46:29;16.73;;;8.20;;
68353;SDS011;55274;43.060;25.618;2023-09-30T03:48:55;19.38;;;7.65;;
68353;SDS011;55274;43.060;25.618;2023-09-30T03:51:21;16.50;;;9.13;;
68353;SDS011;55274;43.060;25.618;2023-09-30T03:53:50;18.05;;;8.40;;
68353;SDS011;55274;43.060;25.618;2023-09-30T03:56:16;16.33;;;8.35;;
68353;SDS011;55274;43.060;25.618;2023-09-30T03:58:43;26.38;;;8.18;;
68353;SDS011;55274;43.060;25.618;2023-09-30T04:01:10;17.95;;;8.48;;
68353;SDS011;55274;43.060;25.618;2023-09-30T04:03:39;18.05;;;8.25;;
68353;SDS011;55274;43.060;25.618;2023-09-30T04:06:06;18.35;;;9.07;;
68353;SDS011;55274;43.060;25.618;2023-09-30T04:08:32;17.15;;;8.18;;
68353;SDS011;55274;43.060;25.618;2023-09-30T04:10:59;16.15;;;7.15;;
68353;SDS011;55274;43.060;25.618;2023-09-30T04:13:25;14.88;;;7.45;;
68353;SDS011;55274;43.060;25.618;2023-09-30T04:15:51;13.48;;;6.97;;
68353;SDS011;55274;43.060;25.618;2023-09-30T04:18:18;19.77;;;8.45;;
68353;SDS011;55274;43.060;25.618;2023-09-30T04:20:45;15.43;;;7.88;;
68353;SDS011;55274;43.060;25.618;2023-09-30T04:23:12;18.45;;;7.90;;
68353;SDS011;55274;43.060;25.618;2023-09-30T04:25:38;18.50;;;8.15;;
68353;SDS011;55274;43.060;25.618;2023-09-30T04:28:05;28.40;;;8.73;;
68353;SDS011;55274;43.060;25.618;2023-09-30T04:30:33;21.08;;;8.43;;
68353;SDS011;55274;43.060;25.618;2023-09-30T04:32:59;17.17;;;8.10;;
68353;SDS011;55274;43.060;25.618;2023-09-30T04:35:26;16.73;;;8.40;;
68353;SDS011;55274;43.060;25.618;2023-09-30T04:37:52;16.77;;;9.20;;
68353;SDS011;55274;43.060;25.618;2023-09-30T04:40:17;18.38;;;9.30;;
68353;SDS011;55274;43.060;25.618;2023-09-30T04:42:46;17.85;;;8.35;;
68353;SDS011;55274;43.060;25.618;2023-09-30T04:45:13;26.90;;;10.10;;
68353;SDS011;55274;43.060;25.618;2023-09-30T04:47:45;22.08;;;8.43;;
68353;SDS011;55274;43.060;25.618;2023-09-30T04:50:11;22.40;;;9.27;;
68353;SDS011;55274;43.060;25.618;2023-09-30T04:52:38;23.45;;;10.70;;
68353;SDS011;55274;43.060;25.618;2023-09-30T04:55:05;20.25;;;9.93;;
68353;SDS011;55274;43.060;25.618;2023-09-30T04:57:31;17.92;;;9.60;;
68353;SDS011;55274;43.060;25.618;2023-09-30T04:59:58;19.55;;;8.48;;
68353;SDS011;55274;43.060;25.618;2023-09-30T05:02:24;12.40;;;6.70;;
68353;SDS011;55274;43.060;25.618;2023-09-30T05:04:50;19.65;;;5.90;;
68353;SDS011;55274;43.060;25.618;2023-09-30T05:07:16;18.23;;;6.65;;
68353;SDS011;55274;43.060;25.618;2023-09-30T05:09:41;14.52;;;6.85;;
68353;SDS011;55274;43.060;25.618;2023-09-30T05:12:08;16.00;;;8.73;;
68353;SDS011;55274;43.060;25.618;2023-09-30T05:14:35;21.80;;;10.98;;
68353;SDS011;55274;43.060;25.618;2023-09-30T05:17:02;21.38;;;10.48;;
68353;SDS011;55274;43.060;25.618;2023-09-30T05:19:29;27.08;;;11.30;;
68353;SDS011;55274;43.060;25.618;2023-09-30T05:21:57;23.25;;;9.02;;
68353;SDS011;55274;43.060;25.618;2023-09-30T05:24:23;19.60;;;9.57;;
68353;SDS011;55274;43.060;25.618;2023-09-30T05:26:49;17.02;;;7.47;;
68353;SDS011;55274;43.060;25.618;2023-09-30T05:29:15;14.55;;;6.28;;
68353;SDS011;55274;43.060;25.618;2023-09-30T05:31:42;23.60;;;9.50;;
68353;SDS011;55274;43.060;25.618;2023-09-30T05:34:07;21.60;;;9.38;;
68353;SDS011;55274;43.060;25.618;2023-09-30T05:36:33;53.58;;;20.58;;
68353;SDS011;55274;43.060;25.618;2023-09-30T05:38:59;69.30;;;27.90;;
68353;SDS011;55274;43.060;25.618;2023-09-30T05:41:25;66.28;;;23.58;;
68353;SDS011;55274;43.060;25.618;2023-09-30T05:43:52;69.50;;;30.50;;
68353;SDS011;55274;43.060;25.618;2023-09-30T05:46:18;71.82;;;29.17;;
68353;SDS011;55274;43.060;25.618;2023-09-30T05:48:44;70.95;;;28.88;;
68353;SDS011;55274;43.060;25.618;2023-09-30T05:51:10;70.38;;;29.25;;
68353;SDS011;55274;43.060;25.618;2023-09-30T05:53:39;52.20;;;21.55;;
68353;SDS011;55274;43.060;25.618;2023-09-30T05:56:06;43.30;;;19.10;;
68353;SDS011;55274;43.060;25.618;2023-09-30T05:58:32;40.88;;;15.93;;
68353;SDS011;55274;43.060;25.618;2023-09-30T06:00:58;30.40;;;13.23;;
68353;SDS011;55274;43.060;25.618;2023-09-30T06:03:27;27.05;;;12.23;;
68353;SDS011;55274;43.060;25.618;2023-09-30T06:05:54;33.75;;;12.93;;
68353;SDS011;55274;43.060;25.618;2023-09-30T06:10:50;30.77;;;11.38;;
68353;SDS011;55274;43.060;25.618;2023-09-30T06:13:16;30.58;;;12.20;;
68353;SDS011;55274;43.060;25.618;2023-09-30T06:15:42;26.55;;;10.32;;
68353;SDS011;55274;43.060;25.618;2023-09-30T06:18:08;23.02;;;10.68;;
68353;SDS011;55274;43.060;25.618;2023-09-30T06:20:37;30.48;;;13.15;;
68353;SDS011;55274;43.060;25.618;2023-09-30T06:23:03;31.85;;;12.75;;
68353;SDS011;55274;43.060;25.618;2023-09-30T06:25:29;23.35;;;12.13;;
68353;SDS011;55274;43.060;25.618;2023-09-30T06:27:55;32.35;;;13.98;;
68353;SDS011;55274;43.060;25.618;2023-09-30T06:30:21;43.60;;;14.65;;
68353;SDS011;55274;43.060;25.618;2023-09-30T06:32:54;73.22;;;15.55;;
68353;SDS011;55274;43.060;25.618;2023-09-30T06:37:51;40.00;;;13.85;;
68353;SDS011;55274;43.060;25.618;2023-09-30T06:40:17;34.85;;;12.80;;
68353;SDS011;55274;43.060;25.618;2023-09-30T06:42:44;31.20;;;13.38;;
68353;SDS011;55274;43.060;25.618;2023-09-30T06:45:10;50.95;;;15.88;;
68353;SDS011;55274;43.060;25.618;2023-09-30T06:47:39;52.63;;;17.52;;
68353;SDS011;55274;43.060;25.618;2023-09-30T06:50:12;44.58;;;13.68;;
68353;SDS011;55274;43.060;25.618;2023-09-30T06:52:41;29.58;;;12.00;;
68353;SDS011;55274;43.060;25.618;2023-09-30T06:55:10;32.80;;;12.40;;
68353;SDS011;55274;43.060;25.618;2023-09-30T06:57:39;33.78;;;13.60;;
68353;SDS011;55274;43.060;25.618;2023-09-30T07:00:08;30.08;;;14.05;;
68353;SDS011;55274;43.060;25.618;2023-09-30T07:02:37;33.45;;;14.02;;
68353;SDS011;55274;43.060;25.618;2023-09-30T07:05:07;31.90;;;12.27;;
68353;SDS011;55274;43.060;25.618;2023-09-30T07:07:34;24.25;;;13.20;;
68353;SDS011;55274;43.060;25.618;2023-09-30T07:10:00;27.23;;;13.65;;
68353;SDS011;55274;43.060;25.618;2023-09-30T07:12:26;26.23;;;12.90;;
68353;SDS011;55274;43.060;25.618;2023-09-30T07:14:52;18.58;;;10.68;;
68353;SDS011;55274;43.060;25.618;2023-09-30T07:17:18;36.72;;;13.07;;
68353;SDS011;55274;43.060;25.618;2023-09-30T07:19:44;22.98;;;11.52;;
68353;SDS011;55274;43.060;25.618;2023-09-30T07:22:10;18.52;;;7.85;;
68353;SDS011;55274;43.060;25.618;2023-09-30T07:24:35;17.83;;;8.00;;
68353;SDS011;55274;43.060;25.618;2023-09-30T07:27:02;16.73;;;7.93;;
68353;SDS011;55274;43.060;25.618;2023-09-30T07:29:27;38.42;;;8.07;;
68353;SDS011;55274;43.060;25.618;2023-09-30T07:31:53;25.15;;;6.53;;
68353;SDS011;55274;43.060;25.618;2023-09-30T07:34:19;17.98;;;5.68;;
68353;SDS011;55274;43.060;25.618;2023-09-30T07:36:45;16.75;;;6.45;;
68353;SDS011;55274;43.060;25.618;2023-09-30T07:39:11;18.90;;;6.47;;
68353;SDS011;55274;43.060;25.618;2023-09-30T07:41:37;20.13;;;6.07;;
68353;SDS011;55274;43.060;25.618;2023-09-30T07:44:03;17.38;;;6.80;;
68353;SDS011;55274;43.060;25.618;2023-09-30T07:46:30;19.77;;;7.72;;
68353;SDS011;55274;43.060;25.618;2023-09-30T07:48:56;22.65;;;8.20;;
68353;SDS011;55274;43.060;25.618;2023-09-30T07:51:24;28.25;;;8.57;;
68353;SDS011;55274;43.060;25.618;2023-09-30T07:53:50;28.38;;;9.82;;
68353;SDS011;55274;43.060;25.618;2023-09-30T07:56:15;28.63;;;8.98;;
68353;SDS011;55274;43.060;25.618;2023-09-30T07:58:41;27.77;;;9.25;;
68353;SDS011;55274;43.060;25.618;2023-09-30T08:01:07;21.67;;;8.95;;
68353;SDS011;55274;43.060;25.618;2023-09-30T08:03:33;28.65;;;9.95;;
68353;SDS011;55274;43.060;25.618;2023-09-30T08:06:00;24.08;;;8.25;;
68353;SDS011;55274;43.060;25.618;2023-09-30T08:08:26;27.42;;;9.73;;
68353;SDS011;55274;43.060;25.618;2023-09-30T08:10:51;34.95;;;11.25;;
68353;SDS011;55274;43.060;25.618;2023-09-30T08:13:21;31.50;;;11.82;;
68353;SDS011;55274;43.060;25.618;2023-09-30T08:15:49;36.50;;;9.15;;
68353;SDS011;55274;43.060;25.618;2023-09-30T08:18:16;22.10;;;9.15;;
68353;SDS011;55274;43.060;25.618;2023-09-30T08:20:42;21.50;;;8.70;;
68353;SDS011;55274;43.060;25.618;2023-09-30T08:23:09;21.50;;;7.70;;
68353;SDS011;55274;43.060;25.618;2023-09-30T08:25:34;15.98;;;7.07;;
68353;SDS011;55274;43.060;25.618;2023-09-30T08:28:00;12.50;;;4.38;;
68353;SDS011;55274;43.060;25.618;2023-09-30T08:30:26;10.75;;;5.05;;
68353;SDS011;55274;43.060;25.618;2023-09-30T08:32:52;15.32;;;5.35;;
68353;SDS011;55274;43.060;25.618;2023-09-30T08:35:18;11.90;;;4.05;;
68353;SDS011;55274;43.060;25.618;2023-09-30T08:37:43;11.95;;;4.15;;
68353;SDS011;55274;43.060;25.618;2023-09-30T08:40:09;9.80;;;4.47;;
68353;SDS011;55274;43.060;25.618;2023-09-30T08:42:36;13.50;;;4.45;;
68353;SDS011;55274;43.060;25.618;2023-09-30T08:45:04;10.05;;;4.68;;
68353;SDS011;55274;43.060;25.618;2023-09-30T08:47:33;9.98;;;3.35;;
68353;SDS011;55274;43.060;25.618;2023-09-30T08:50:00;8.75;;;3.58;;
68353;SDS011;55274;43.060;25.618;2023-09-30T08:52:34;11.50;;;3.25;;
68353;SDS011;55274;43.060;25.618;2023-09-30T08:55:01;9.88;;;3.78;;
68353;SDS011;55274;43.060;25.618;2023-09-30T08:57:27;18.65;;;7.13;;
68353;SDS011;55274;43.060;25.618;2023-09-30T08:59:54;13.32;;;4.35;;
68353;SDS011;55274;43.060;25.618;2023-09-30T09:02:20;15.43;;;4.72;;
68353;SDS011;55274;43.060;25.618;2023-09-30T09:04:46;7.05;;;3.45;;
68353;SDS011;55274;43.060;25.618;2023-09-30T09:07:12;5.35;;;3.35;;
68353;SDS011;55274;43.060;25.618;2023-09-30T09:09:38;12.65;;;4.18;;
68353;SDS011;55274;43.060;25.618;2023-09-30T09:12:04;9.52;;;3.90;;
68353;SDS011;55274;43.060;25.618;2023-09-30T09:14:39;8.68;;;3.58;;
68353;SDS011;55274;43.060;25.618;2023-09-30T09:17:07;13.35;;;3.38;;
68353;SDS011;55274;43.060;25.618;2023-09-30T09:19:36;10.25;;;3.30;;
68353;SDS011;55274;43.060;25.618;2023-09-30T09:22:02;4.78;;;3.03;;
68353;SDS011;55274;43.060;25.618;2023-09-30T09:24:32;9.77;;;3.42;;
68353;SDS011;55274;43.060;25.618;2023-09-30T09:27:06;10.52;;;3.85;;
68353;SDS011;55274;43.060;25.618;2023-09-30T09:29:36;8.32;;;3.38;;
68353;SDS011;55274;43.060;25.618;2023-09-30T09:34:35;12.13;;;3.63;;
68353;SDS011;55274;43.060;25.618;2023-09-30T09:37:12;12.73;;;4.82;;
68353;SDS011;55274;43.060;25.618;2023-09-30T09:39:39;10.27;;;3.63;;
68353;SDS011;55274;43.060;25.618;2023-09-30T09:42:04;11.40;;;3.85;;
68353;SDS011;55274;43.060;25.618;2023-09-30T09:44:31;13.98;;;4.47;;
68353;SDS011;55274;43.060;25.618;2023-09-30T09:47:01;5.82;;;3.13;;
68353;SDS011;55274;43.060;25.618;2023-09-30T09:49:31;9.45;;;3.40;;
68353;SDS011;55274;43.060;25.618;2023-09-30T09:51:57;9.02;;;3.72;;
68353;SDS011;55274;43.060;25.618;2023-09-30T09:54:25;6.88;;;3.17;;
68353;SDS011;55274;43.060;25.618;2023-09-30T09:56:54;12.55;;;3.50;;
68353;SDS011;55274;43.060;25.618;2023-09-30T09:59:26;5.97;;;3.63;;
68353;SDS011;55274;43.060;25.618;2023-09-30T10:01:53;12.25;;;3.85;;
68353;SDS011;55274;43.060;25.618;2023-09-30T10:04:19;10.52;;;3.60;;
68353;SDS011;55274;43.060;25.618;2023-09-30T10:06:46;6.60;;;3.33;;
68353;SDS011;55274;43.060;25.618;2023-09-30T10:09:17;10.77;;;3.70;;
68353;SDS011;55274;43.060;25.618;2023-09-30T10:11:45;16.02;;;5.88;;
68353;SDS011;55274;43.060;25.618;2023-09-30T10:14:29;13.45;;;5.75;;
68353;SDS011;55274;43.060;25.618;2023-09-30T10:16:57;13.75;;;5.65;;
68353;SDS011;55274;43.060;25.618;2023-09-30T10:19:23;13.57;;;4.22;;
68353;SDS011;55274;43.060;25.618;2023-09-30T10:24:53;11.23;;;4.13;;
68353;SDS011;55274;43.060;25.618;2023-09-30T10:29:59;12.60;;;5.35;;
68353;SDS011;55274;43.060;25.618;2023-09-30T10:37:42;7.95;;;3.42;;
68353;SDS011;55274;43.060;25.618;2023-09-30T10:40:09;13.45;;;4.13;;
68353;SDS011;55274;43.060;25.618;2023-09-30T10:42:48;9.20;;;3.53;;
68353;SDS011;55274;43.060;25.618;2023-09-30T10:50:54;7.95;;;3.17;;
68353;SDS011;55274;43.060;25.618;2023-09-30T10:53:22;5.63;;;3.38;;
68353;SDS011;55274;43.060;25.618;2023-09-30T10:55:54;11.40;;;3.65;;
68353;SDS011;55274;43.060;25.618;2023-09-30T11:01:05;13.90;;;3.80;;
68353;SDS011;55274;43.060;25.618;2023-09-30T11:03:31;7.53;;;3.53;;
68353;SDS011;55274;43.060;25.618;2023-09-30T11:05:56;12.15;;;4.10;;
68353;SDS011;55274;43.060;25.618;2023-09-30T11:08:22;15.23;;;4.72;;
68353;SDS011;55274;43.060;25.618;2023-09-30T11:10:51;6.95;;;3.58;;
68353;SDS011;55274;43.060;25.618;2023-09-30T11:13:18;15.35;;;4.05;;
68353;SDS011;55274;43.060;25.618;2023-09-30T11:15:44;7.38;;;3.30;;
68353;SDS011;55274;43.060;25.618;2023-09-30T11:18:14;11.32;;;3.85;;
68353;SDS011;55274;43.060;25.618;2023-09-30T11:20:42;7.57;;;3.42;;
68353;SDS011;55274;43.060;25.618;2023-09-30T11:23:09;9.90;;;3.85;;
68353;SDS011;55274;43.060;25.618;2023-09-30T11:25:36;8.70;;;3.45;;
68353;SDS011;55274;43.060;25.618;2023-09-30T11:28:16;5.78;;;3.30;;
68353;SDS011;55274;43.060;25.618;2023-09-30T11:30:56;8.13;;;3.72;;
68353;SDS011;55274;43.060;25.618;2023-09-30T11:33:23;8.18;;;3.47;;
68353;SDS011;55274;43.060;25.618;2023-09-30T11:36:02;12.45;;;4.47;;
68353;SDS011;55274;43.060;25.618;2023-09-30T11:38:29;11.88;;;3.55;;
68353;SDS011;55274;43.060;25.618;2023-09-30T11:43:29;12.65;;;4.28;;
68353;SDS011;55274;43.060;25.618;2023-09-30T11:46:08;5.82;;;3.50;;
68353;SDS011;55274;43.060;25.618;2023-09-30T11:48:38;8.63;;;3.75;;
68353;SDS011;55274;43.060;25.618;2023-09-30T11:51:21;9.52;;;3.38;;
68353;SDS011;55274;43.060;25.618;2023-09-30T11:53:49;13.13;;;3.58;;
68353;SDS011;55274;43.060;25.618;2023-09-30T11:56:19;8.10;;;3.78;;
68353;SDS011;55274;43.060;25.618;2023-09-30T11:58:44;12.93;;;3.80;;
68353;SDS011;55274;43.060;25.618;2023-09-30T12:01:14;11.43;;;3.83;;
68353;SDS011;55274;43.060;25.618;2023-09-30T12:03:41;10.52;;;3.42;;
68353;SDS011;55274;43.060;25.618;2023-09-30T12:06:07;11.43;;;3.80;;
68353;SDS011;55274;43.060;25.618;2023-09-30T12:08:35;10.45;;;4.18;;
68353;SDS011;55274;43.060;25.618;2023-09-30T12:11:03;6.60;;;3.38;;
68353;SDS011;55274;43.060;25.618;2023-09-30T12:13:29;8.52;;;3.42;;
68353;SDS011;55274;43.060;25.618;2023-09-30T12:15:55;24.13;;;3.85;;
68353;SDS011;55274;43.060;25.618;2023-09-30T12:18:22;6.68;;;3.67;;
68353;SDS011;55274;43.060;25.618;2023-09-30T12:20:52;11.20;;;3.47;;
68353;SDS011;55274;43.060;25.618;2023-09-30T12:23:18;13.43;;;3.60;;
68353;SDS011;55274;43.060;25.618;2023-09-30T12:25:45;11.45;;;3.70;;
68353;SDS011;55274;43.060;25.618;2023-09-30T12:28:12;8.57;;;3.72;;
68353;SDS011;55274;43.060;25.618;2023-09-30T12:30:40;8.07;;;3.80;;
68353;SDS011;55274;43.060;25.618;2023-09-30T12:33:07;10.02;;;3.63;;
68353;SDS011;55274;43.060;25.618;2023-09-30T12:35:33;12.55;;;3.95;;
68353;SDS011;55274;43.060;25.618;2023-09-30T12:37:59;11.23;;;3.70;;
68353;SDS011;55274;43.060;25.618;2023-09-30T12:40:24;13.95;;;3.65;;
68353;SDS011;55274;43.060;25.618;2023-09-30T12:42:50;8.93;;;3.70;;
68353;SDS011;55274;43.060;25.618;2023-09-30T12:45:16;5.88;;;3.05;;
68353;SDS011;55274;43.060;25.618;2023-09-30T12:47:43;8.88;;;3.65;;
68353;SDS011;55274;43.060;25.618;2023-09-30T12:50:12;7.68;;;3.05;;
68353;SDS011;55274;43.060;25.618;2023-09-30T12:52:38;12.52;;;3.55;;
68353;SDS011;55274;43.060;25.618;2023-09-30T12:55:04;7.45;;;3.33;;
68353;SDS011;55274;43.060;25.618;2023-09-30T12:57:30;7.38;;;3.85;;
68353;SDS011;55274;43.060;25.618;2023-09-30T12:59:56;15.50;;;4.20;;
68353;SDS011;55274;43.060;25.618;2023-09-30T13:02:22;16.48;;;4.80;;
68353;SDS011;55274;43.060;25.618;2023-09-30T13:04:48;14.50;;;3.67;;
68353;SDS011;55274;43.060;25.618;2023-09-30T13:07:14;8.30;;;3.75;;
68353;SDS011;55274;43.060;25.618;2023-09-30T13:09:40;11.75;;;3.50;;
68353;SDS011;55274;43.060;25.618;2023-09-30T13:12:07;13.55;;;3.88;;
68353;SDS011;55274;43.060;25.618;2023-09-30T13:14:33;14.13;;;3.72;;
68353;SDS011;55274;43.060;25.618;2023-09-30T13:16:59;15.23;;;4.00;;
68353;SDS011;55274;43.060;25.618;2023-09-30T13:19:26;19.05;;;3.90;;
68353;SDS011;55274;43.060;25.618;2023-09-30T13:21:52;12.65;;;3.75;;
68353;SDS011;55274;43.060;25.618;2023-09-30T13:24:18;16.70;;;3.88;;
68353;SDS011;55274;43.060;25.618;2023-09-30T13:26:45;9.68;;;3.58;;
68353;SDS011;55274;43.060;25.618;2023-09-30T13:29:11;8.02;;;3.83;;
68353;SDS011;55274;43.060;25.618;2023-09-30T13:31:38;13.35;;;3.78;;
68353;SDS011;55274;43.060;25.618;2023-09-30T13:34:04;12.25;;;4.32;;
68353;SDS011;55274;43.060;25.618;2023-09-30T13:36:30;14.98;;;4.03;;
68353;SDS011;55274;43.060;25.618;2023-09-30T13:38:56;5.85;;;3.65;;
68353;SDS011;55274;43.060;25.618;2023-09-30T13:41:22;14.07;;;3.90;;
68353;SDS011;55274;43.060;25.618;2023-09-30T13:43:48;10.73;;;3.67;;
68353;SDS011;55274;43.060;25.618;2023-09-30T13:46:14;6.30;;;3.40;;
68353;SDS011;55274;43.060;25.618;2023-09-30T13:48:41;9.73;;;3.80;;
68353;SDS011;55274;43.060;25.618;2023-09-30T13:51:10;6.88;;;3.90;;
68353;SDS011;55274;43.060;25.618;2023-09-30T13:53:36;15.02;;;4.45;;
68353;SDS011;55274;43.060;25.618;2023-09-30T13:56:02;10.10;;;3.65;;
68353;SDS011;55274;43.060;25.618;2023-09-30T13:58:31;19.20;;;5.10;;
68353;SDS011;55274;43.060;25.618;2023-09-30T14:00:57;12.55;;;3.92;;
68353;SDS011;55274;43.060;25.618;2023-09-30T14:03:23;10.02;;;4.13;;
68353;SDS011;55274;43.060;25.618;2023-09-30T14:05:51;9.38;;;4.45;;
68353;SDS011;55274;43.060;25.618;2023-09-30T14:08:18;13.30;;;5.47;;
68353;SDS011;55274;43.060;25.618;2023-09-30T14:10:44;12.02;;;4.55;;
68353;SDS011;55274;43.060;25.618;2023-09-30T14:13:10;10.55;;;4.57;;
68353;SDS011;55274;43.060;25.618;2023-09-30T14:15:36;23.25;;;4.65;;
68353;SDS011;55274;43.060;25.618;2023-09-30T14:18:02;11.15;;;4.05;;
68353;SDS011;55274;43.060;25.618;2023-09-30T14:20:29;8.50;;;4.20;;
68353;SDS011;55274;43.060;25.618;2023-09-30T14:22:55;9.52;;;4.38;;
68353;SDS011;55274;43.060;25.618;2023-09-30T14:25:21;10.50;;;4.28;;
68353;SDS011;55274;43.060;25.618;2023-09-30T14:27:47;7.22;;;3.95;;
68353;SDS011;55274;43.060;25.618;2023-09-30T14:30:14;11.05;;;4.32;;
68353;SDS011;55274;43.060;25.618;2023-09-30T14:32:40;11.80;;;4.20;;
68353;SDS011;55274;43.060;25.618;2023-09-30T14:35:07;8.95;;;3.97;;
68353;SDS011;55274;43.060;25.618;2023-09-30T14:37:34;6.97;;;4.00;;
68353;SDS011;55274;43.060;25.618;2023-09-30T14:40:00;9.00;;;4.38;;
68353;SDS011;55274;43.060;25.618;2023-09-30T14:42:30;13.48;;;4.40;;
68353;SDS011;55274;43.060;25.618;2023-09-30T14:44:57;18.50;;;4.40;;
68353;SDS011;55274;43.060;25.618;2023-09-30T14:47:22;19.88;;;4.72;;
68353;SDS011;55274;43.060;25.618;2023-09-30T14:49:48;7.28;;;4.07;;